sensor_id;sensor_type;location;lat;lon;timestamp;temperature;humidity
66871;DHT22;53780;44.998;9.926;2022-09-09T00:02:28;20.11;86.65
66871;DHT22;53780;44.998;9.926;2022-09-09T00:05:45;20.00;86.64
66871;DHT22;53780;44.998;9.926;2022-09-09T00:09:14;19.98;86.21
66871;DHT22;53780;44.998;9.926;2022-09-09T00:16:07;19.81;86.88
66871;DHT22;53780;44.998;9.926;2022-09-09T00:22:28;19.79;87.33
66871;DHT22;53780;44.998;9.926;2022-09-09T00:25:39;19.71;87.12
66871;DHT22;53780;44.998;9.926;2022-09-09T00:29:13;19.63;87.56
66871;DHT22;53780;44.998;9.926;2022-09-09T00:32:19;19.53;88.01
66871;DHT22;53780;44.998;9.926;2022-09-09T00:35:32;19.50;88.27
66871;DHT22;53780;44.998;9.926;2022-09-09T00:38:45;19.48;88.64
66871;DHT22;53780;44.998;9.926;2022-09-09T00:42:03;19.52;88.83
66871;DHT22;53780;44.998;9.926;2022-09-09T00:48:20;19.55;88.80
66871;DHT22;53780;44.998;9.926;2022-09-09T00:55:00;19.55;89.50
66871;DHT22;53780;44.998;9.926;2022-09-09T00:58:08;19.58;89.58
66871;DHT22;53780;44.998;9.926;2022-09-09T01:01:13;19.58;89.34
66871;DHT22;53780;44.998;9.926;2022-09-09T01:04:27;19.56;90.08
66871;DHT22;53780;44.998;9.926;2022-09-09T01:07:32;19.60;90.66
66871;DHT22;53780;44.998;9.926;2022-09-09T01:10:44;19.62;90.68
66871;DHT22;53780;44.998;9.926;2022-09-09T01:14:29;19.62;90.82
66871;DHT22;53780;44.998;9.926;2022-09-09T01:21:06;19.53;91.79
66871;DHT22;53780;44.998;9.926;2022-09-09T01:24:22;19.48;92.09
66871;DHT22;53780;44.998;9.926;2022-09-09T01:27:46;19.46;92.30
66871;DHT22;53780;44.998;9.926;2022-09-09T01:30:51;19.46;92.31
66871;DHT22;53780;44.998;9.926;2022-09-09T01:33:59;19.48;92.30
66871;DHT22;53780;44.998;9.926;2022-09-09T01:37:08;19.42;92.29
66871;DHT22;53780;44.998;9.926;2022-09-09T01:40:14;19.36;92.15
66871;DHT22;53780;44.998;9.926;2022-09-09T01:43:20;19.29;92.08
66871;DHT22;53780;44.998;9.926;2022-09-09T01:46:27;19.26;92.05
66871;DHT22;53780;44.998;9.926;2022-09-09T01:49:32;19.11;92.44
66871;DHT22;53780;44.998;9.926;2022-09-09T01:52:44;19.11;92.13
66871;DHT22;53780;44.998;9.926;2022-09-09T02:02:53;19.04;91.74
66871;DHT22;53780;44.998;9.926;2022-09-09T02:09:44;19.04;90.83
66871;DHT22;53780;44.998;9.926;2022-09-09T02:13:03;19.07;90.55
66871;DHT22;53780;44.998;9.926;2022-09-09T02:16:11;19.08;90.19
66871;DHT22;53780;44.998;9.926;2022-09-09T02:19:23;19.11;90.05
66871;DHT22;53780;44.998;9.926;2022-09-09T02:22:44;19.08;89.61
66871;DHT22;53780;44.998;9.926;2022-09-09T02:25:52;19.10;89.29
66871;DHT22;53780;44.998;9.926;2022-09-09T02:29:03;19.03;89.49
66871;DHT22;53780;44.998;9.926;2022-09-09T02:32:21;19.07;89.36
66871;DHT22;53780;44.998;9.926;2022-09-09T02:35:27;19.08;89.15
66871;DHT22;53780;44.998;9.926;2022-09-09T02:38:35;19.05;89.14
66871;DHT22;53780;44.998;9.926;2022-09-09T02:41:45;19.04;89.52
66871;DHT22;53780;44.998;9.926;2022-09-09T02:44:49;18.87;90.34
66871;DHT22;53780;44.998;9.926;2022-09-09T02:51:30;18.87;90.75
66871;DHT22;53780;44.998;9.926;2022-09-09T02:54:40;18.86;90.88
66871;DHT22;53780;44.998;9.926;2022-09-09T02:57:48;18.95;90.91
66871;DHT22;53780;44.998;9.926;2022-09-09T03:00:55;18.95;90.41
66871;DHT22;53780;44.998;9.926;2022-09-09T03:04:02;18.90;89.73
66871;DHT22;53780;44.998;9.926;2022-09-09T03:07:08;18.83;89.45
66871;DHT22;53780;44.998;9.926;2022-09-09T03:10:13;18.73;89.63
66871;DHT22;53780;44.998;9.926;2022-09-09T03:13:19;18.59;90.28
66871;DHT22;53780;44.998;9.926;2022-09-09T03:16:23;18.53;90.85
66871;DHT22;53780;44.998;9.926;2022-09-09T03:19:29;18.50;91.53
66871;DHT22;53780;44.998;9.926;2022-09-09T03:22:34;18.56;92.09
66871;DHT22;53780;44.998;9.926;2022-09-09T03:25:38;18.63;92.34
66871;DHT22;53780;44.998;9.926;2022-09-09T03:28:43;18.67;92.63
66871;DHT22;53780;44.998;9.926;2022-09-09T03:31:50;18.67;92.94
66871;DHT22;53780;44.998;9.926;2022-09-09T03:34:54;18.76;93.20
66871;DHT22;53780;44.998;9.926;2022-09-09T03:37:58;18.77;93.29
66871;DHT22;53780;44.998;9.926;2022-09-09T03:41:04;18.78;93.23
66871;DHT22;53780;44.998;9.926;2022-09-09T03:44:11;18.80;93.23
66871;DHT22;53780;44.998;9.926;2022-09-09T03:47:19;18.80;93.18
66871;DHT22;53780;44.998;9.926;2022-09-09T03:50:26;18.74;93.03
66871;DHT22;53780;44.998;9.926;2022-09-09T03:53:29;18.74;93.04
66871;DHT22;53780;44.998;9.926;2022-09-09T03:56:34;18.68;92.95
66871;DHT22;53780;44.998;9.926;2022-09-09T03:59:38;18.63;92.94
66871;DHT22;53780;44.998;9.926;2022-09-09T04:02:42;18.60;92.96
66871;DHT22;53780;44.998;9.926;2022-09-09T04:05:51;18.56;93.00
66871;DHT22;53780;44.998;9.926;2022-09-09T04:08:55;18.53;93.16
66871;DHT22;53780;44.998;9.926;2022-09-09T04:12:00;18.50;93.34
66871;DHT22;53780;44.998;9.926;2022-09-09T04:15:04;18.49;93.48
66871;DHT22;53780;44.998;9.926;2022-09-09T04:18:11;18.52;93.48
66871;DHT22;53780;44.998;9.926;2022-09-09T04:21:15;18.39;93.38
66871;DHT22;53780;44.998;9.926;2022-09-09T04:24:20;18.45;93.38
66871;DHT22;53780;44.998;9.926;2022-09-09T04:27:26;18.43;93.19
66871;DHT22;53780;44.998;9.926;2022-09-09T04:30:30;18.43;93.14
66871;DHT22;53780;44.998;9.926;2022-09-09T04:33:35;18.40;93.16
66871;DHT22;53780;44.998;9.926;2022-09-09T04:36:39;18.38;93.25
66871;DHT22;53780;44.998;9.926;2022-09-09T04:39:44;18.38;93.23
66871;DHT22;53780;44.998;9.926;2022-09-09T04:42:49;18.40;93.15
66871;DHT22;53780;44.998;9.926;2022-09-09T04:45:53;18.42;92.90
66871;DHT22;53780;44.998;9.926;2022-09-09T04:49:00;18.32;92.95
66871;DHT22;53780;44.998;9.926;2022-09-09T04:52:07;18.26;92.81
66871;DHT22;53780;44.998;9.926;2022-09-09T04:55:13;18.26;92.61
66871;DHT22;53780;44.998;9.926;2022-09-09T04:58:20;18.29;92.11
66871;DHT22;53780;44.998;9.926;2022-09-09T05:01:26;18.25;91.24
66871;DHT22;53780;44.998;9.926;2022-09-09T05:04:37;18.30;91.09
66871;DHT22;53780;44.998;9.926;2022-09-09T05:07:42;18.29;90.44
66871;DHT22;53780;44.998;9.926;2022-09-09T05:10:46;18.35;90.07
66871;DHT22;53780;44.998;9.926;2022-09-09T05:13:51;18.42;90.07
66871;DHT22;53780;44.998;9.926;2022-09-09T05:16:56;18.45;89.52
66871;DHT22;53780;44.998;9.926;2022-09-09T05:20:02;18.52;89.55
66871;DHT22;53780;44.998;9.926;2022-09-09T05:23:08;18.56;89.11
66871;DHT22;53780;44.998;9.926;2022-09-09T05:26:15;18.56;88.60
66871;DHT22;53780;44.998;9.926;2022-09-09T05:29:24;18.49;88.38
66871;DHT22;53780;44.998;9.926;2022-09-09T05:32:29;18.43;88.61
66871;DHT22;53780;44.998;9.926;2022-09-09T05:35:35;18.43;88.51
66871;DHT22;53780;44.998;9.926;2022-09-09T05:38:42;18.52;88.11
66871;DHT22;53780;44.998;9.926;2022-09-09T05:41:47;18.56;87.51
66871;DHT22;53780;44.998;9.926;2022-09-09T05:44:52;18.63;87.05
66871;DHT22;53780;44.998;9.926;2022-09-09T05:47:58;18.64;85.97
66871;DHT22;53780;44.998;9.926;2022-09-09T05:51:05;18.78;86.36
66871;DHT22;53780;44.998;9.926;2022-09-09T05:54:12;18.86;85.43
66871;DHT22;53780;44.998;9.926;2022-09-09T05:57:21;19.00;84.37
66871;DHT22;53780;44.998;9.926;2022-09-09T06:00:25;19.16;84.14
66871;DHT22;53780;44.998;9.926;2022-09-09T06:03:30;19.31;83.70
66871;DHT22;53780;44.998;9.926;2022-09-09T06:06:35;19.48;83.77
66871;DHT22;53780;44.998;9.926;2022-09-09T06:09:41;19.70;81.94
66871;DHT22;53780;44.998;9.926;2022-09-09T06:12:45;20.10;81.02
66871;DHT22;53780;44.998;9.926;2022-09-09T06:15:52;23.57;68.33
66871;DHT22;53780;44.998;9.926;2022-09-09T06:18:58;26.24;59.96
66871;DHT22;53780;44.998;9.926;2022-09-09T06:22:03;26.32;57.62
66871;DHT22;53780;44.998;9.926;2022-09-09T06:25:12;24.78;60.85
66871;DHT22;53780;44.998;9.926;2022-09-09T06:28:17;26.59;57.21
66871;DHT22;53780;44.998;9.926;2022-09-09T06:31:24;28.37;51.52
66871;DHT22;53780;44.998;9.926;2022-09-09T06:34:28;29.78;49.13
66871;DHT22;53780;44.998;9.926;2022-09-09T06:37:34;30.30;47.83
66871;DHT22;53780;44.998;9.926;2022-09-09T06:40:38;30.23;48.41
66871;DHT22;53780;44.998;9.926;2022-09-09T06:43:44;27.80;54.57
66871;DHT22;53780;44.998;9.926;2022-09-09T06:46:49;30.19;50.73
66871;DHT22;53780;44.998;9.926;2022-09-09T06:49:53;29.35;53.57
66871;DHT22;53780;44.998;9.926;2022-09-09T06:52:57;29.78;53.14
66871;DHT22;53780;44.998;9.926;2022-09-09T06:59:15;28.83;56.56
66871;DHT22;53780;44.998;9.926;2022-09-09T07:02:19;26.52;61.71
66871;DHT22;53780;44.998;9.926;2022-09-09T07:05:24;25.84;64.26
66871;DHT22;53780;44.998;9.926;2022-09-09T07:08:29;26.43;63.63
66871;DHT22;53780;44.998;9.926;2022-09-09T07:11:49;25.97;64.72
66871;DHT22;53780;44.998;9.926;2022-09-09T07:14:57;26.04;65.47
66871;DHT22;53780;44.998;9.926;2022-09-09T07:18:01;26.35;65.80
66871;DHT22;53780;44.998;9.926;2022-09-09T07:21:07;25.90;66.29
66871;DHT22;53780;44.998;9.926;2022-09-09T07:24:12;25.81;67.35
66871;DHT22;53780;44.998;9.926;2022-09-09T07:27:18;26.17;66.44
66871;DHT22;53780;44.998;9.926;2022-09-09T07:30:22;26.35;65.94
66871;DHT22;53780;44.998;9.926;2022-09-09T07:33:27;26.50;66.49
66871;DHT22;53780;44.998;9.926;2022-09-09T07:36:33;25.74;69.04
66871;DHT22;53780;44.998;9.926;2022-09-09T07:39:38;25.36;70.55
66871;DHT22;53780;44.998;9.926;2022-09-09T07:42:42;25.18;71.22
66871;DHT22;53780;44.998;9.926;2022-09-09T07:45:46;24.95;72.54
66871;DHT22;53780;44.998;9.926;2022-09-09T07:48:55;23.82;76.00
66871;DHT22;53780;44.998;9.926;2022-09-09T07:52:04;24.33;73.44
66871;DHT22;53780;44.998;9.926;2022-09-09T07:55:09;24.57;73.34
66871;DHT22;53780;44.998;9.926;2022-09-09T07:58:13;25.22;70.63
66871;DHT22;53780;44.998;9.926;2022-09-09T08:01:24;25.22;71.29
66871;DHT22;53780;44.998;9.926;2022-09-09T08:04:28;25.53;70.47
66871;DHT22;53780;44.998;9.926;2022-09-09T08:07:33;25.77;72.16
66871;DHT22;53780;44.998;9.926;2022-09-09T08:10:37;25.85;69.54
66871;DHT22;53780;44.998;9.926;2022-09-09T08:13:42;25.70;70.79
66871;DHT22;53780;44.998;9.926;2022-09-09T08:16:47;25.62;72.44
66871;DHT22;53780;44.998;9.926;2022-09-09T08:19:55;25.36;72.39
66871;DHT22;53780;44.998;9.926;2022-09-09T08:23:03;25.04;73.96
66871;DHT22;53780;44.998;9.926;2022-09-09T08:26:17;24.82;73.00
66871;DHT22;53780;44.998;9.926;2022-09-09T08:29:26;24.77;74.43
66871;DHT22;53780;44.998;9.926;2022-09-09T08:32:32;24.77;74.08
66871;DHT22;53780;44.998;9.926;2022-09-09T08:35:36;24.87;73.99
66871;DHT22;53780;44.998;9.926;2022-09-09T08:38:42;24.98;74.55
66871;DHT22;53780;44.998;9.926;2022-09-09T08:56:12;25.87;72.58
66871;DHT22;53780;44.998;9.926;2022-09-09T08:59:24;25.88;72.03
66871;DHT22;53780;44.998;9.926;2022-09-09T09:02:40;26.02;71.67
66871;DHT22;53780;44.998;9.926;2022-09-09T09:06:06;26.11;71.29
66871;DHT22;53780;44.998;9.926;2022-09-09T09:12:57;26.76;72.44
66871;DHT22;53780;44.998;9.926;2022-09-09T09:16:13;27.25;70.72
66871;DHT22;53780;44.998;9.926;2022-09-09T09:19:23;27.60;67.81
66871;DHT22;53780;44.998;9.926;2022-09-09T09:22:35;27.67;69.34
66871;DHT22;53780;44.998;9.926;2022-09-09T09:25:44;27.63;66.76
66871;DHT22;53780;44.998;9.926;2022-09-09T09:28:48;27.55;67.13
66871;DHT22;53780;44.998;9.926;2022-09-09T09:31:56;27.20;67.57
66871;DHT22;53780;44.998;9.926;2022-09-09T09:35:10;27.20;70.47
66871;DHT22;53780;44.998;9.926;2022-09-09T09:38:23;26.80;63.70
66871;DHT22;53780;44.998;9.926;2022-09-09T09:41:35;26.73;64.20
66871;DHT22;53780;44.998;9.926;2022-09-09T09:44:43;27.10;64.69
66871;DHT22;53780;44.998;9.926;2022-09-09T09:47:59;27.62;61.93
66871;DHT22;53780;44.998;9.926;2022-09-09T09:51:09;27.98;62.59
66871;DHT22;53780;44.998;9.926;2022-09-09T09:57:34;28.22;59.79
66871;DHT22;53780;44.998;9.926;2022-09-09T10:00:52;28.56;59.22
66871;DHT22;53780;44.998;9.926;2022-09-09T10:04:18;28.42;60.84
66871;DHT22;53780;44.998;9.926;2022-09-09T10:07:24;28.32;58.78
66871;DHT22;53780;44.998;9.926;2022-09-09T10:14:24;28.70;58.27
66871;DHT22;53780;44.998;9.926;2022-09-09T10:27:48;29.10;56.27
66871;DHT22;53780;44.998;9.926;2022-09-09T10:47:34;29.03;54.29
66871;DHT22;53780;44.998;9.926;2022-09-09T10:50:52;29.14;54.35
66871;DHT22;53780;44.998;9.926;2022-09-09T10:54:34;29.51;54.96
66871;DHT22;53780;44.998;9.926;2022-09-09T11:00:49;30.36;52.75
66871;DHT22;53780;44.998;9.926;2022-09-09T11:04:03;30.67;52.46
66871;DHT22;53780;44.998;9.926;2022-09-09T11:07:12;30.88;53.27
66871;DHT22;53780;44.998;9.926;2022-09-09T11:10:50;30.93;50.77
66871;DHT22;53780;44.998;9.926;2022-09-09T11:17:03;31.06;49.41
66871;DHT22;53780;44.998;9.926;2022-09-09T11:20:12;30.84;50.31
66871;DHT22;53780;44.998;9.926;2022-09-09T11:23:27;30.65;50.83
66871;DHT22;53780;44.998;9.926;2022-09-09T11:26:54;30.76;52.17
66871;DHT22;53780;44.998;9.926;2022-09-09T11:30:19;31.20;53.87
66871;DHT22;53780;44.998;9.926;2022-09-09T11:40:35;31.68;49.41
66871;DHT22;53780;44.998;9.926;2022-09-09T11:43:45;31.94;49.92
66871;DHT22;53780;44.998;9.926;2022-09-09T11:46:51;31.98;50.32
66871;DHT22;53780;44.998;9.926;2022-09-09T11:50:22;32.12;49.74
66871;DHT22;53780;44.998;9.926;2022-09-09T11:53:30;32.32;47.25
66871;DHT22;53780;44.998;9.926;2022-09-09T11:56:44;32.26;48.46
66871;DHT22;53780;44.998;9.926;2022-09-09T11:59:51;32.42;48.57
66871;DHT22;53780;44.998;9.926;2022-09-09T12:02:56;32.08;46.80
66871;DHT22;53780;44.998;9.926;2022-09-09T12:06:30;31.54;47.61
66871;DHT22;53780;44.998;9.926;2022-09-09T12:09:47;30.89;48.56
66871;DHT22;53780;44.998;9.926;2022-09-09T12:12:53;30.89;51.13
66871;DHT22;53780;44.998;9.926;2022-09-09T12:15:59;31.15;49.51
66871;DHT22;53780;44.998;9.926;2022-09-09T12:29:46;30.16;53.88
66871;DHT22;53780;44.998;9.926;2022-09-09T12:33:12;30.03;51.36
66871;DHT22;53780;44.998;9.926;2022-09-09T12:36:23;29.86;50.83
66871;DHT22;53780;44.998;9.926;2022-09-09T12:39:43;29.75;52.87
66871;DHT22;53780;44.998;9.926;2022-09-09T12:42:50;29.55;52.51
66871;DHT22;53780;44.998;9.926;2022-09-09T12:46:06;29.47;53.09
66871;DHT22;53780;44.998;9.926;2022-09-09T12:49:33;29.41;55.34
66871;DHT22;53780;44.998;9.926;2022-09-09T12:52:39;29.45;55.53
66871;DHT22;53780;44.998;9.926;2022-09-09T12:55:51;29.53;54.50
66871;DHT22;53780;44.998;9.926;2022-09-09T12:58:57;29.48;54.19
66871;DHT22;53780;44.998;9.926;2022-09-09T13:02:01;29.48;53.52
66871;DHT22;53780;44.998;9.926;2022-09-09T13:05:16;29.41;55.25
66871;DHT22;53780;44.998;9.926;2022-09-09T13:08:21;29.31;51.93
66871;DHT22;53780;44.998;9.926;2022-09-09T13:14:35;29.03;55.56
66871;DHT22;53780;44.998;9.926;2022-09-09T13:17:41;29.11;55.79
66871;DHT22;53780;44.998;9.926;2022-09-09T13:20:48;29.16;55.36
66871;DHT22;53780;44.998;9.926;2022-09-09T13:23:53;29.24;53.66
66871;DHT22;53780;44.998;9.926;2022-09-09T13:27:02;29.16;52.94
66871;DHT22;53780;44.998;9.926;2022-09-09T13:33:34;29.08;56.59
66871;DHT22;53780;44.998;9.926;2022-09-09T13:36:40;29.06;53.24
66871;DHT22;53780;44.998;9.926;2022-09-09T13:39:51;28.79;53.99
66871;DHT22;53780;44.998;9.926;2022-09-09T13:42:59;28.68;54.45
66871;DHT22;53780;44.998;9.926;2022-09-09T13:46:06;28.84;55.58
66871;DHT22;53780;44.998;9.926;2022-09-09T13:49:28;28.88;56.06
66871;DHT22;53780;44.998;9.926;2022-09-09T13:52:32;28.88;55.68
66871;DHT22;53780;44.998;9.926;2022-09-09T13:55:36;28.82;54.54
66871;DHT22;53780;44.998;9.926;2022-09-09T13:58:40;28.80;54.89
66871;DHT22;53780;44.998;9.926;2022-09-09T14:01:44;28.83;56.38
66871;DHT22;53780;44.998;9.926;2022-09-09T14:04:48;28.83;58.36
66871;DHT22;53780;44.998;9.926;2022-09-09T14:07:54;28.62;55.44
66871;DHT22;53780;44.998;9.926;2022-09-09T14:10:57;28.34;53.82
66871;DHT22;53780;44.998;9.926;2022-09-09T14:14:01;28.22;54.77
66871;DHT22;53780;44.998;9.926;2022-09-09T14:17:05;28.15;56.01
66871;DHT22;53780;44.998;9.926;2022-09-09T14:20:10;28.22;59.93
66871;DHT22;53780;44.998;9.926;2022-09-09T14:23:16;28.22;59.01
66871;DHT22;53780;44.998;9.926;2022-09-09T14:26:21;28.27;57.78
66871;DHT22;53780;44.998;9.926;2022-09-09T14:29:25;28.31;57.08
66871;DHT22;53780;44.998;9.926;2022-09-09T14:32:29;28.32;55.88
66871;DHT22;53780;44.998;9.926;2022-09-09T14:35:35;28.38;56.46
66871;DHT22;53780;44.998;9.926;2022-09-09T14:38:39;28.32;54.80
66871;DHT22;53780;44.998;9.926;2022-09-09T14:41:43;28.31;55.86
66871;DHT22;53780;44.998;9.926;2022-09-09T14:44:46;28.27;58.49
66871;DHT22;53780;44.998;9.926;2022-09-09T14:47:51;28.21;56.37
66871;DHT22;53780;44.998;9.926;2022-09-09T14:50:55;28.15;57.32
66871;DHT22;53780;44.998;9.926;2022-09-09T14:53:59;28.22;56.27
66871;DHT22;53780;44.998;9.926;2022-09-09T14:57:03;28.29;56.80
66871;DHT22;53780;44.998;9.926;2022-09-09T15:00:08;28.27;55.77
66871;DHT22;53780;44.998;9.926;2022-09-09T15:03:12;28.17;56.43
66871;DHT22;53780;44.998;9.926;2022-09-09T15:06:16;28.08;55.14
66871;DHT22;53780;44.998;9.926;2022-09-09T15:09:20;28.04;54.87
66871;DHT22;53780;44.998;9.926;2022-09-09T15:12:24;27.92;55.16
66871;DHT22;53780;44.998;9.926;2022-09-09T15:15:28;27.92;55.51
66871;DHT22;53780;44.998;9.926;2022-09-09T15:18:32;27.85;55.83
66871;DHT22;53780;44.998;9.926;2022-09-09T15:21:37;27.87;55.79
66871;DHT22;53780;44.998;9.926;2022-09-09T15:24:41;27.85;55.73
66871;DHT22;53780;44.998;9.926;2022-09-09T15:27:45;27.83;55.46
66871;DHT22;53780;44.998;9.926;2022-09-09T15:30:50;27.74;55.55
66871;DHT22;53780;44.998;9.926;2022-09-09T15:33:57;27.69;55.92
66871;DHT22;53780;44.998;9.926;2022-09-09T15:37:04;27.74;55.63
66871;DHT22;53780;44.998;9.926;2022-09-09T15:40:08;27.71;56.06
66871;DHT22;53780;44.998;9.926;2022-09-09T15:43:12;27.71;54.54
66871;DHT22;53780;44.998;9.926;2022-09-09T15:49:23;27.70;54.83
66871;DHT22;53780;44.998;9.926;2022-09-09T15:52:28;27.73;55.32
66871;DHT22;53780;44.998;9.926;2022-09-09T15:55:32;27.74;56.07
66871;DHT22;53780;44.998;9.926;2022-09-09T15:58:36;27.82;54.80
66871;DHT22;53780;44.998;9.926;2022-09-09T16:01:41;27.77;55.21
66871;DHT22;53780;44.998;9.926;2022-09-09T16:04:45;27.76;54.54
66871;DHT22;53780;44.998;9.926;2022-09-09T16:07:49;27.77;55.03
66871;DHT22;53780;44.998;9.926;2022-09-09T16:10:53;27.70;55.74
66871;DHT22;53780;44.998;9.926;2022-09-09T16:13:58;27.63;55.61
66871;DHT22;53780;44.998;9.926;2022-09-09T16:17:04;27.65;55.61
66871;DHT22;53780;44.998;9.926;2022-09-09T16:20:08;27.62;56.15
66871;DHT22;53780;44.998;9.926;2022-09-09T16:23:12;27.66;55.43
66871;DHT22;53780;44.998;9.926;2022-09-09T16:26:17;27.62;55.28
66871;DHT22;53780;44.998;9.926;2022-09-09T16:29:22;27.65;55.72
66871;DHT22;53780;44.998;9.926;2022-09-09T16:32:26;27.65;55.80
66871;DHT22;53780;44.998;9.926;2022-09-09T16:35:30;27.59;57.09
66871;DHT22;53780;44.998;9.926;2022-09-09T16:38:34;27.58;57.32
66871;DHT22;53780;44.998;9.926;2022-09-09T16:41:40;27.48;57.39
66871;DHT22;53780;44.998;9.926;2022-09-09T16:44:45;27.42;57.15
66871;DHT22;53780;44.998;9.926;2022-09-09T16:47:49;27.42;56.69
66871;DHT22;53780;44.998;9.926;2022-09-09T16:50:53;27.34;56.91
66871;DHT22;53780;44.998;9.926;2022-09-09T16:54:02;27.35;56.74
66871;DHT22;53780;44.998;9.926;2022-09-09T16:57:06;27.27;57.30
66871;DHT22;53780;44.998;9.926;2022-09-09T17:00:10;27.21;57.83
66871;DHT22;53780;44.998;9.926;2022-09-09T17:03:14;27.11;58.49
66871;DHT22;53780;44.998;9.926;2022-09-09T17:06:19;27.05;59.08
66871;DHT22;53780;44.998;9.926;2022-09-09T17:09:25;27.04;59.51
66871;DHT22;53780;44.998;9.926;2022-09-09T17:12:32;26.95;59.93
66871;DHT22;53780;44.998;9.926;2022-09-09T17:15:41;26.88;60.30
66871;DHT22;53780;44.998;9.926;2022-09-09T17:18:51;26.83;60.85
66871;DHT22;53780;44.998;9.926;2022-09-09T17:21:57;26.76;60.32
66871;DHT22;53780;44.998;9.926;2022-09-09T17:25:03;26.69;60.39
66871;DHT22;53780;44.998;9.926;2022-09-09T17:28:09;26.67;60.80
66871;DHT22;53780;44.998;9.926;2022-09-09T17:31:15;26.60;60.83
66871;DHT22;53780;44.998;9.926;2022-09-09T17:34:19;26.53;60.82
66871;DHT22;53780;44.998;9.926;2022-09-09T17:37:23;26.46;61.17
66871;DHT22;53780;44.998;9.926;2022-09-09T17:40:30;26.42;61.31
66871;DHT22;53780;44.998;9.926;2022-09-09T17:43:35;26.38;61.36
66871;DHT22;53780;44.998;9.926;2022-09-09T17:46:42;26.32;61.65
66871;DHT22;53780;44.998;9.926;2022-09-09T17:49:46;26.26;62.37
66871;DHT22;53780;44.998;9.926;2022-09-09T17:52:49;26.19;62.74
66871;DHT22;53780;44.998;9.926;2022-09-09T17:55:53;26.08;63.23
66871;DHT22;53780;44.998;9.926;2022-09-09T17:59:00;25.98;63.71
66871;DHT22;53780;44.998;9.926;2022-09-09T18:02:04;25.85;64.78
66871;DHT22;53780;44.998;9.926;2022-09-09T18:05:08;25.75;65.32
66871;DHT22;53780;44.998;9.926;2022-09-09T18:08:13;25.71;65.10
66871;DHT22;53780;44.998;9.926;2022-09-09T18:11:18;25.66;64.73
66871;DHT22;53780;44.998;9.926;2022-09-09T18:14:25;25.62;65.04
66871;DHT22;53780;44.998;9.926;2022-09-09T18:17:29;25.57;65.18
66871;DHT22;53780;44.998;9.926;2022-09-09T18:20:34;25.53;65.20
66871;DHT22;53780;44.998;9.926;2022-09-09T18:23:40;25.45;65.31
66871;DHT22;53780;44.998;9.926;2022-09-09T18:26:52;25.39;65.37
66871;DHT22;53780;44.998;9.926;2022-09-09T18:29:56;25.33;65.21
66871;DHT22;53780;44.998;9.926;2022-09-09T18:33:00;25.23;65.23
66871;DHT22;53780;44.998;9.926;2022-09-09T18:36:12;25.20;65.37
66871;DHT22;53780;44.998;9.926;2022-09-09T18:39:18;25.16;65.38
66871;DHT22;53780;44.998;9.926;2022-09-09T18:42:22;25.04;64.93
66871;DHT22;53780;44.998;9.926;2022-09-09T18:45:26;24.96;65.00
66871;DHT22;53780;44.998;9.926;2022-09-09T18:48:33;24.92;64.29
66871;DHT22;53780;44.998;9.926;2022-09-09T18:51:38;24.87;63.34
66871;DHT22;53780;44.998;9.926;2022-09-09T18:54:43;24.85;61.67
66871;DHT22;53780;44.998;9.926;2022-09-09T18:57:48;24.84;59.71
66871;DHT22;53780;44.998;9.926;2022-09-09T19:00:53;24.84;58.16
66871;DHT22;53780;44.998;9.926;2022-09-09T19:03:59;24.87;57.66
66871;DHT22;53780;44.998;9.926;2022-09-09T19:07:03;24.88;56.87
66871;DHT22;53780;44.998;9.926;2022-09-09T19:10:07;24.88;56.82
66871;DHT22;53780;44.998;9.926;2022-09-09T19:13:11;24.87;57.12
66871;DHT22;53780;44.998;9.926;2022-09-09T19:16:16;24.80;56.95
66871;DHT22;53780;44.998;9.926;2022-09-09T19:19:23;24.74;57.03
66871;DHT22;53780;44.998;9.926;2022-09-09T19:22:28;24.70;57.03
66871;DHT22;53780;44.998;9.926;2022-09-09T19:25:35;24.65;57.38
66871;DHT22;53780;44.998;9.926;2022-09-09T19:28:39;24.65;57.51
66871;DHT22;53780;44.998;9.926;2022-09-09T19:31:44;24.65;57.99
66871;DHT22;53780;44.998;9.926;2022-09-09T19:34:50;24.60;58.15
66871;DHT22;53780;44.998;9.926;2022-09-09T19:37:56;24.56;58.20
66871;DHT22;53780;44.998;9.926;2022-09-09T19:41:03;24.50;58.61
66871;DHT22;53780;44.998;9.926;2022-09-09T19:44:11;24.49;59.30
66871;DHT22;53780;44.998;9.926;2022-09-09T19:47:16;24.41;59.15
66871;DHT22;53780;44.998;9.926;2022-09-09T19:50:21;24.39;59.48
66871;DHT22;53780;44.998;9.926;2022-09-09T19:53:25;24.37;61.02
66871;DHT22;53780;44.998;9.926;2022-09-09T19:56:30;24.25;59.56
66871;DHT22;53780;44.998;9.926;2022-09-09T19:59:35;24.20;61.47
66871;DHT22;53780;44.998;9.926;2022-09-09T20:02:40;24.08;62.21
66871;DHT22;53780;44.998;9.926;2022-09-09T20:05:47;24.04;63.50
66871;DHT22;53780;44.998;9.926;2022-09-09T20:08:52;23.84;63.70
66871;DHT22;53780;44.998;9.926;2022-09-09T20:11:57;23.72;64.27
66871;DHT22;53780;44.998;9.926;2022-09-09T20:15:02;23.62;64.63
66871;DHT22;53780;44.998;9.926;2022-09-09T20:18:06;23.51;64.83
66871;DHT22;53780;44.998;9.926;2022-09-09T20:21:18;23.27;66.33
66871;DHT22;53780;44.998;9.926;2022-09-09T20:24:26;23.06;67.48
66871;DHT22;53780;44.998;9.926;2022-09-09T20:27:31;22.93;67.89
66871;DHT22;53780;44.998;9.926;2022-09-09T20:30:35;22.89;68.26
66871;DHT22;53780;44.998;9.926;2022-09-09T20:33:42;22.91;68.29
66871;DHT22;53780;44.998;9.926;2022-09-09T20:36:46;22.86;69.00
66871;DHT22;53780;44.998;9.926;2022-09-09T20:39:51;22.84;70.92
66871;DHT22;53780;44.998;9.926;2022-09-09T20:42:55;22.75;69.90
66871;DHT22;53780;44.998;9.926;2022-09-09T20:46:02;22.64;69.89
66871;DHT22;53780;44.998;9.926;2022-09-09T20:49:08;22.54;70.42
66871;DHT22;53780;44.998;9.926;2022-09-09T20:52:13;22.33;70.80
66871;DHT22;53780;44.998;9.926;2022-09-09T20:55:18;22.17;72.08
66871;DHT22;53780;44.998;9.926;2022-09-09T20:58:22;22.02;73.33
66871;DHT22;53780;44.998;9.926;2022-09-09T21:01:26;21.94;74.63
66871;DHT22;53780;44.998;9.926;2022-09-09T21:04:31;21.94;75.50
66871;DHT22;53780;44.998;9.926;2022-09-09T21:07:34;22.04;76.05
66871;DHT22;53780;44.998;9.926;2022-09-09T21:10:43;22.17;76.00
66871;DHT22;53780;44.998;9.926;2022-09-09T21:13:48;22.18;76.09
66871;DHT22;53780;44.998;9.926;2022-09-09T21:16:53;22.17;76.47
66871;DHT22;53780;44.998;9.926;2022-09-09T21:19:57;22.04;76.82
66871;DHT22;53780;44.998;9.926;2022-09-09T21:23:00;21.90;77.00
66871;DHT22;53780;44.998;9.926;2022-09-09T21:26:05;21.89;76.99
66871;DHT22;53780;44.998;9.926;2022-09-09T21:29:09;21.96;76.58
66871;DHT22;53780;44.998;9.926;2022-09-09T21:32:13;21.99;76.26
66871;DHT22;53780;44.998;9.926;2022-09-09T21:35:17;22.06;76.48
66871;DHT22;53780;44.998;9.926;2022-09-09T21:38:22;22.10;76.71
66871;DHT22;53780;44.998;9.926;2022-09-09T21:41:27;22.04;77.38
66871;DHT22;53780;44.998;9.926;2022-09-09T21:44:31;21.94;77.65